createdAt,value
2022-09-07T04:01:10.743Z,6.80
2022-09-07T04:05:13.326Z,6.18
2022-09-07T04:09:16.208Z,5.87
2022-09-07T04:13:18.733Z,5.78
2022-09-07T04:17:22.640Z,6.00
2022-09-07T04:21:26.810Z,6.57
2022-09-07T04:25:29.372Z,5.97
2022-09-07T04:29:32.014Z,5.60
2022-09-07T04:33:36.144Z,6.55
2022-09-07T04:37:38.635Z,6.10
2022-09-07T04:41:41.155Z,6.30
2022-09-07T04:45:43.724Z,5.60
2022-09-07T04:49:51.164Z,6.38
2022-09-07T04:53:55.898Z,5.75
2022-09-07T04:57:58.433Z,5.05
2022-09-07T05:02:01.063Z,5.40
2022-09-07T05:06:06.128Z,5.43
2022-09-07T05:10:09.467Z,5.70
2022-09-07T05:18:14.750Z,5.75
2022-09-07T05:22:19.284Z,5.35
2022-09-07T05:26:24.611Z,5.30
2022-09-07T05:34:52.884Z,6.00
2022-09-07T05:38:59.383Z,5.55
2022-09-07T05:43:01.912Z,5.47
2022-09-07T05:47:04.600Z,5.47
2022-09-07T05:51:07.427Z,5.50
2022-09-07T05:55:28.816Z,6.05
2022-09-07T05:59:32.786Z,5.80
2022-09-07T06:03:36.933Z,5.28
2022-09-07T06:07:39.845Z,5.18
2022-09-07T06:11:43.754Z,5.53
2022-09-07T06:15:46.330Z,5.22
2022-09-07T06:19:48.916Z,5.22
2022-09-07T06:23:52.561Z,5.00
2022-09-07T06:27:56.461Z,4.57
2022-09-07T06:36:23.045Z,2.73
2022-09-07T06:40:25.771Z,2.58
2022-09-07T06:44:29.671Z,2.40
2022-09-07T06:48:32.767Z,2.38
2022-09-07T06:57:00.230Z,2.00
2022-09-07T07:01:08.311Z,2.13
2022-09-07T07:05:11.017Z,2.33
2022-09-07T07:09:14.453Z,2.42
2022-09-07T07:17:20.098Z,3.67
2022-09-07T07:21:22.723Z,3.25
2022-09-07T07:25:25.267Z,3.00
2022-09-07T07:29:28.426Z,2.97
2022-09-07T07:37:36.599Z,2.60
2022-09-07T07:41:56.444Z,1.98
2022-09-07T07:46:05.409Z,2.50
2022-09-07T07:54:33.897Z,2.10
2022-09-07T08:02:39.548Z,2.50
2022-09-07T08:06:44.604Z,2.38
2022-09-07T08:10:47.722Z,2.35
2022-09-07T08:14:50.387Z,1.92
2022-09-07T08:18:53.571Z,1.80
2022-09-07T08:22:57.387Z,2.30
2022-09-07T08:27:00.618Z,1.95
2022-09-07T08:31:05.916Z,2.10
2022-09-07T08:35:09.082Z,1.92
2022-09-07T08:39:12.907Z,3.03
2022-09-07T08:43:23.597Z,2.08
2022-09-07T08:47:37.395Z,2.10
2022-09-07T08:51:44.018Z,2.00
2022-09-07T08:55:51.849Z,2.38
2022-09-07T09:00:03.954Z,1.90
2022-09-07T09:04:16.640Z,2.00
2022-09-07T09:08:33.340Z,1.98
2022-09-07T09:12:55.165Z,2.70
2022-09-07T09:17:01.175Z,2.30
2022-09-07T09:21:04.106Z,2.47
2022-09-07T09:25:18.932Z,2.50
2022-09-07T09:29:24.043Z,2.60
2022-09-07T09:33:28.818Z,2.40
2022-09-07T09:37:36.551Z,2.20
2022-09-07T09:41:40.180Z,2.47
2022-09-07T09:54:45.872Z,2.20
2022-09-07T10:07:52.828Z,2.20
2022-09-07T10:12:07.541Z,2.17
2022-09-07T10:16:12.431Z,1.90
2022-09-07T10:20:34.785Z,2.25
2022-09-07T10:24:40.477Z,2.00
2022-09-07T10:33:09.061Z,2.00
2022-09-07T10:37:19.344Z,2.10
2022-09-07T10:41:28.894Z,2.30
2022-09-07T10:45:42.412Z,2.03
2022-09-07T10:54:32.282Z,2.35
2022-09-07T10:59:02.781Z,1.83
2022-09-07T11:03:24.955Z,2.00
2022-09-07T11:07:44.279Z,1.80
2022-09-07T11:12:03.874Z,2.42
2022-09-07T11:16:50.519Z,1.73
2022-09-07T11:20:41.230Z,2.20
2022-09-07T11:25:29.041Z,1.85
2022-09-07T11:29:34.671Z,1.83
2022-09-07T11:38:25.381Z,1.90
2022-09-07T11:42:49.056Z,1.90
2022-09-07T11:46:57.272Z,1.70
2022-09-07T11:51:03.215Z,1.60
2022-09-07T11:55:11.331Z,1.40
2022-09-07T11:59:32.487Z,1.90
2022-09-07T12:04:04.736Z,1.88
2022-09-07T12:08:19.092Z,1.90
2022-09-07T12:12:46.999Z,1.80
2022-09-07T12:17:05.512Z,2.00
2022-09-07T12:21:38.667Z,1.98
2022-09-07T12:25:41.297Z,1.95
2022-09-07T12:29:45.419Z,2.10
2022-09-07T12:33:49.204Z,2.17
2022-09-07T12:37:53.624Z,1.90
2022-09-07T12:42:38.178Z,2.17
2022-09-07T12:46:49.968Z,1.98
2022-09-07T12:50:58.962Z,1.80
2022-09-07T12:55:27.089Z,2.00
2022-09-07T12:59:50.023Z,1.90
2022-09-07T13:04:12.658Z,1.70
2022-09-07T13:08:32.335Z,2.28
2022-09-07T13:12:57.416Z,1.95
2022-09-07T13:17:41.568Z,2.10
2022-09-07T13:21:48.663Z,2.13
2022-09-07T13:25:57.522Z,1.88
2022-09-07T13:30:04.014Z,2.38
2022-09-07T13:34:31.087Z,2.00
2022-09-07T13:38:37.342Z,2.47
2022-09-07T13:42:40.178Z,2.20
2022-09-07T13:46:51.254Z,2.13
2022-09-07T13:50:59.933Z,1.92
2022-09-07T13:55:14.171Z,1.80
2022-09-07T13:59:20.376Z,2.10
2022-09-07T14:03:26.678Z,1.90
2022-09-07T14:07:31.207Z,1.90
2022-09-07T14:11:41.873Z,1.90
2022-09-07T14:15:46.756Z,2.00
2022-09-07T14:19:52.396Z,2.20
2022-09-07T14:23:58.011Z,2.00
2022-09-07T14:28:02.334Z,2.13
2022-09-07T14:32:10.624Z,2.78
2022-09-07T14:36:39.323Z,2.42
2022-09-07T14:40:37.795Z,2.20
2022-09-07T14:44:44.871Z,2.40
2022-09-07T14:48:50.626Z,1.98
2022-09-07T14:57:32.265Z,2.50
2022-09-07T15:01:38.839Z,2.00
2022-09-07T15:05:48.171Z,2.13
2022-09-07T15:09:51.984Z,2.22
2022-09-07T15:13:57.805Z,2.80
2022-09-07T15:18:07.757Z,2.30
2022-09-07T15:22:13.512Z,2.13
2022-09-07T15:30:41.626Z,2.20
2022-09-07T15:34:44.439Z,2.10
2022-09-07T15:39:03.240Z,1.83
2022-09-07T15:43:20.068Z,2.10
2022-09-07T16:00:13.799Z,2.20
2022-09-07T16:04:16.553Z,2.40
2022-09-07T16:08:26.436Z,2.45
2022-09-07T16:21:17.850Z,2.20
2022-09-07T16:25:20.421Z,2.15
2022-09-07T16:33:35.975Z,2.28
2022-09-07T16:38:43.630Z,2.30
2022-09-07T16:42:01.928Z,2.35
2022-09-07T16:46:05.638Z,2.13
2022-09-07T16:50:10.119Z,2.40
2022-09-07T16:54:15.684Z,2.63
2022-09-07T17:02:40.834Z,2.47
2022-09-07T17:10:47.117Z,2.50
2022-09-07T17:23:16.824Z,2.25
2022-09-07T17:27:19.366Z,2.30
2022-09-07T17:35:46.078Z,2.60
2022-09-07T17:39:49.963Z,2.53
2022-09-07T17:43:54.039Z,2.50
2022-09-07T17:47:56.546Z,2.40
2022-09-07T17:52:00.869Z,2.60
2022-09-07T17:56:06.472Z,2.33
2022-09-07T18:00:11.648Z,2.45
2022-09-07T18:04:14.736Z,2.53
2022-09-07T18:08:17.353Z,2.47
2022-09-07T18:12:22.496Z,3.22
2022-09-07T18:16:27.654Z,2.85
2022-09-07T18:20:32.875Z,2.50
2022-09-07T18:24:36.885Z,2.92
2022-09-07T18:33:07.586Z,2.80
2022-09-07T18:37:12.029Z,2.88
2022-09-07T18:41:15.722Z,2.60
2022-09-07T18:45:28.769Z,2.90
2022-09-07T18:49:31.447Z,3.25
2022-09-07T18:53:34.990Z,2.40
2022-09-07T18:57:38.218Z,2.83
2022-09-07T19:01:42.184Z,3.13
2022-09-07T19:05:53.398Z,3.10
2022-09-07T19:09:55.881Z,4.03
2022-09-07T19:13:59.503Z,3.47
2022-09-07T19:18:05.574Z,3.60
2022-09-07T19:22:08.258Z,3.67
2022-09-07T19:26:11.590Z,3.40
2022-09-07T19:30:15.437Z,3.80
2022-09-07T19:34:20.145Z,3.50
2022-09-07T19:38:22.683Z,3.70
2022-09-07T19:42:26.256Z,4.07
2022-09-07T19:46:28.758Z,3.35
2022-09-07T19:50:33.646Z,3.00
2022-09-07T19:54:36.335Z,3.25
2022-09-07T19:58:40.647Z,3.08
2022-09-07T20:02:43.206Z,3.53
2022-09-07T20:06:49.489Z,3.78
2022-09-07T20:10:52.978Z,3.67
2022-09-07T20:14:55.628Z,4.03
2022-09-07T20:18:58.524Z,4.32
2022-09-07T20:23:02.651Z,4.20
2022-09-07T20:27:05.528Z,4.45
2022-09-07T20:31:09.664Z,4.85
2022-09-07T20:35:12.218Z,4.60
2022-09-07T20:39:17.122Z,4.72
2022-09-07T20:43:19.824Z,4.72
2022-09-07T20:47:22.366Z,4.95
2022-09-07T20:51:25.022Z,5.20
2022-09-07T20:55:28.928Z,5.57
2022-09-07T20:59:31.402Z,5.93
